Historyczne dane pomiarowe

Dodano dane terminowe – wersja testowa.

Dane z okresu 1951-2019

Wersja bazy: 1.34 [2019-03-16, lista zmian], aktualizacja planowana na 2019-04-15

Dane meteo z obszaru Polski uzyskane na podstawie danych udostępnionych przez Instytut Meteorologii i Gospodarki Wodnej – Państwowy Instytut Badawczy.

 

Wybierz Datę:    

       

TemperaturaWilgotnośćWiatrCiśnienieOpadyŚniegCzas trwania zjawisk
 Stacja t tx tn tng RH VA  wxwx mslp ppp RRR   cm mm wxwxwxwxwxwxwx
2019-01-31 -1.8 3.0 -5.6-10.2 81.9 4.3- 1.3--1004.5 967.9 0.0 0.0 0.0x- 4.5-------
2019-01-30 -1.8 -0.1 -3.9-10.0 85.4 4.6- 1.6--1005.2 968.5 0.0 0.0 0.0x- 0.1-------
2019-01-29 -0.9 1.2 -2.6 -9.1 88.4 5.1- 1.6--1004.2 967.6 0.0 0.0 0.0x- 0.2-------
2019-01-28 -0.1 1.7 -1.4 -4.2 90.5 5.5- 2.1-- 996.3 960.1 3.4 3.4 0.0x- 0.0-------
2019-01-27 0.8 3.3 -2.2 -1.7 87.3 5.7- 2.5-- 999.0 962.9 0.0 0.0 0.0x- 0.2-------
2019-01-26 -4.4 -2.2 -7.6-11.1 90.0 4.0- 2.1--1007.8 970.7 0.5 0.5 0.0x- 0.0-------
2019-01-25 -6.7 -5.5 -7.5 -6.7 85.8 3.2- 2.0--1013.9 976.2 0.1 0.1 0.0x- 0.0-------
2019-01-24 -6.6 -5.0 -7.4 -7.1 83.0 3.1- 3.3--1012.4 974.8 0.4 0.0 0.4x- 0.0-------
2019-01-23 -5.7 -4.2 -8.4 -8.5 83.6 3.4- 3.1--1008.5 971.1 0.0 0.0 0.0x- 0.0-------
2019-01-22 -7.8 -2.1-10.9-13.9 88.9 3.0- 2.3--1017.1 979.1 0.0 0.0 0.0x- 7.2-------
2019-01-21 -6.2 -4.6 -7.4-14.1 94.1 3.6- 1.6--1023.9 985.9 0.0 0.0 0.0x- 0.0-------
2019-01-20 -5.9 -1.2 -9.3-14.1 83.5 3.3- 0.9--1020.3 982.5 0.0 0.0 0.0x- 6.4-------
2019-01-19 -4.1 0.3 -6.7-11.3 84.6 3.8- 1.5--1022.6 984.9 0.0 0.0 0.0x- 7.9-------
2019-01-18 -0.2 5.1 -3.2 -6.5 81.8 5.0- 3.1--1013.4 976.6 0.1 0.1 0.0x- 0.4-------
2019-01-17 3.5 5.0 1.0 -0.1 73.4 5.8- 3.1--1004.1 968.1 0.0 0.0 0.0x- 0.5-------
2019-01-16 2.9 3.9 0.1 -0.1 93.8 7.0- 3.0--1008.1 971.9 0.8 0.8 0.0x- 0.0-------
2019-01-15 -0.8 0.4 -4.0 -5.2 87.0 5.1- 3.3--1006.7 970.1 8.3 2.7 5.6x- 0.1-------
2019-01-14 -0.4 2.9 -3.4 -4.2 89.3 5.4- 5.5-- 994.3 958.2 1.8 1.8 0.0x- 1.6-------
2019-01-13 1.3 2.2 0.1 -0.1 95.3 6.4- 3.0-- 998.5 962.4 6.9 1.0 5.9x- 0.0-------
2019-01-12 0.6 2.2 -4.4 -4.4 93.1 6.0- 2.5--1010.5 973.9 2.4 0.4 2.0x- 0.3-------
2019-01-11 -5.4 -3.8 -7.8 -7.7 91.3 3.8- 2.3--1019.0 981.3 0.8 0.0 0.8x- 0.5-------
2019-01-10 -3.4 0.4 -4.9 -4.9 94.1 4.5- 2.5--1016.7 979.3 0.1 0.1 0.0x- 0.0-------
2019-01-09 0.3 0.9 0.0 -0.2 95.8 6.0- 1.1--1002.6 966.2 0.3 0.2 0.1x- 0.0-------
2019-01-08 -1.7--- 90.9 5.0- 3.3--1007.7 970.9 4.6 3.0 1.6x- 0.1-------
2019-01-07 -7.1 -2.9-12.2-19.2 76.9 2.7- 1.5--1029.8 991.4 0.0 0.0 0.0x- 5.6-------
2019-01-06 -3.5 0.3 -5.4 -5.6 83.0 4.0- 3.9--1023.5 985.9 0.0 0.0 0.0x- 0.0-------
2019-01-05 0.2 1.5 -3.5 -3.4 94.9 5.9----1014.7 977.9 5.0 4.9 0.1x- 1.0-------
2019-01-04 -3.8 -2.5 -5.5 -6.3 89.1 4.1- 2.9--1026.6 988.8 4.2 0.3 3.9x- 0.1-------
2019-01-03 -3.3 -1.5 -4.6 -5.7 82.1 3.9- 6.4--1024.8 987.2 0.0 0.0 0.0x- 0.7-------
2019-01-02 -0.4 3.4 -1.9 -1.8 89.8 5.4- 6.0--1013.5 976.7 1.4 1.4 0.0x- 0.0-------
2019-01-01 2.1 5.1 -0.3 -0.8 92.0 6.6- 3.8--1017.8 981.2 9.4 5.2 4.2x- 0.0-------
2018-12-31 1.2 2.6 0.5 0.2 90.6 6.0- 4.1--1028.0 990.9 0.0 0.0 0.0x- 0.0-------
2018-12-30 2.7 3.8 1.7 1.5 95.0 7.1- 3.0--1019.9 983.3 6.8 5.8 1.0x- 0.0-------
2018-12-29 3.3 3.9 2.3 2.2 95.1 7.3- 2.4--1025.4 988.6 1.7 0.7 1.0x- 0.0-------
2018-12-28 3.7 4.4 3.3 3.3 95.8 7.6- 2.9--1021.9 985.3 0.8 0.5 0.3x- 0.0-------
2018-12-27 4.1 5.3 2.6 2.2 94.4 7.7- 2.1--1023.1 986.5 0.7 0.7 0.0x- 0.0-------
2018-12-26 2.6 3.2 1.8 1.2 91.9 6.8- 2.9--1024.3 987.5 0.5 0.1 0.4x- 0.0-------
2018-12-25 0.1 1.9 -2.1 -2.2 92.4 5.7- 3.0--1025.2 988.0 2.4 1.6 0.8x- 0.0-------
2018-12-24 0.4 4.2 -1.3 -1.5 89.3 5.7- 4.8--1017.0 980.2 0.2 0.2 0.0x- 0.0-------
2018-12-23 2.6 3.9 1.2 0.7 93.1 6.9- 1.8--1016.6 980.1 2.6 0.4 2.2x- 0.0-------
2018-12-22 4.9 6.9 2.4 1.2 86.9 7.5- 3.8--1006.8 970.9 0.3 0.3 0.0x- 0.0-------
2018-12-21 1.4 3.0 -2.6 -2.5 85.5 5.8- 3.5--1015.3 978.7 5.3 0.0 5.3x- 0.6-------
2018-12-20 -2.9 -0.8 -5.7 -6.2 86.3 4.3- 2.3--1020.6 983.1 0.3 0.0 0.3x- 0.0-------
2018-12-19 -3.7 0.3 -5.3 -5.8 89.9 4.2- 2.4--1026.7 988.9 0.0 0.0 0.0x- 0.6-------
2018-12-18 -0.1 1.7 -1.3 -2.3 89.8 5.5- 1.1--1029.1 991.8 0.0 0.0 0.0x- 0.0-------
2018-12-17 -3.0 -1.2 -6.2 -8.4 88.5 4.4- 1.8--1023.2 985.7 0.0 0.0 0.0x- 0.0-------
2018-12-16 -2.8 -1.8 -3.3 -3.4 89.1 4.4- 1.9--1020.2 982.8 0.2 0.2 0.0x- 0.0-------
2018-12-15 -1.6 -1.2 -2.1 -2.2 87.1 4.7- 2.6--1026.8 989.3 0.4 0.0 0.4x- 0.0-------
2018-12-14 -1.8 -0.3 -2.2 -2.4 91.8 5.0- 2.0--1026.3 988.8 0.0 0.0 0.0x- 0.0-------
2018-12-13 -0.7 -0.2 -2.4 -4.8 97.6 5.7- 1.5--1023.6 986.4 0.1 0.0 0.1x- 0.0-------
2018-12-12 -0.6 0.2 -1.8 -3.3 96.9 5.7- 2.4--1020.4 983.3 0.2 0.2 0.0x- 0.0-------
2018-12-11 0.2 1.0 -0.1 -0.1 96.1 6.0- 2.0--1011.3 974.7 5.8 4.3 1.5x- 0.0-------
2018-12-10 2.3 5.5 0.6 0.0 89.5 6.5- 2.9--1006.7 970.5 3.4 1.3 2.1x- 0.3-------
2018-12-09 4.8--- 89.4 7.7- 3.4-- 998.1 962.6 7.2 3.5 3.7x- 0.2-------
2018-12-08 5.3 7.7 3.9 2.4 78.9 7.0- 3.3--1005.5 969.7 2.6 0.0 2.6x- 2.8-------
2018-12-07 4.0 6.3 1.0 0.3 93.5 7.7- 3.1--1012.1 975.9 2.1 0.3 1.8x- 0.0-------
2018-12-06 -0.3 2.4 -3.3 -4.9 82.1 4.9- 2.4--1024.5 987.3 0.1 0.0 0.1x- 1.6-------
2018-12-05 -0.1 2.8 -1.9 -4.1 91.0 5.5- 1.8--1028.3 991.0 0.0 0.0 0.0x- 3.7-------
2018-12-04 5.3 7.7 2.4 1.0 93.0 8.4- 2.9--1011.6 975.6 2.4 2.4 0.0x- 0.0-------
2018-12-03 4.2 6.4 0.9 0.4 92.8 7.7- 3.6--1006.5 970.5 1.1 0.1 1.0x- 0.0-------
346.3 ms

 

Źródłem pochodzenia danych jest Instytut Meteorologii i Gospodarki Wodnej – Państwowy Instytut Badawczy. Dane Instytutu Meteorologii i Gospodarki Wodnej – Państwowego Instytutu Badawczego zostały przetworzone.

Dane źródłowe można odnaleźć na stronie https://dane.imgw.pl